sensor_id;sensor_type;location;lat;lon;timestamp;P1;durP1;ratioP1;P2;durP2;ratioP2
2031;SDS011;27625;50.422;7.944;2023-02-12T00:02:40;103.50;;;49.47;;
2031;SDS011;27625;50.422;7.944;2023-02-12T00:05:06;88.20;;;46.97;;
2031;SDS011;27625;50.422;7.944;2023-02-12T00:07:33;94.17;;;48.87;;
2031;SDS011;27625;50.422;7.944;2023-02-12T00:10:01;88.73;;;45.97;;
2031;SDS011;27625;50.422;7.944;2023-02-12T00:12:28;90.23;;;45.27;;
2031;SDS011;27625;50.422;7.944;2023-02-12T00:15:01;84.30;;;41.83;;
2031;SDS011;27625;50.422;7.944;2023-02-12T00:17:33;84.37;;;41.77;;
2031;SDS011;27625;50.422;7.944;2023-02-12T00:20:01;86.67;;;40.77;;
2031;SDS011;27625;50.422;7.944;2023-02-12T00:25:00;76.20;;;42.17;;
2031;SDS011;27625;50.422;7.944;2023-02-12T00:27:27;87.37;;;42.40;;
2031;SDS011;27625;50.422;7.944;2023-02-12T00:29:55;99.53;;;45.97;;
2031;SDS011;27625;50.422;7.944;2023-02-12T00:32:21;110.77;;;46.90;;
2031;SDS011;27625;50.422;7.944;2023-02-12T00:34:48;96.43;;;45.43;;
2031;SDS011;27625;50.422;7.944;2023-02-12T00:37:18;93.10;;;44.70;;
2031;SDS011;27625;50.422;7.944;2023-02-12T00:39:45;105.40;;;49.20;;
2031;SDS011;27625;50.422;7.944;2023-02-12T00:42:11;104.00;;;48.50;;
2031;SDS011;27625;50.422;7.944;2023-02-12T00:44:41;106.30;;;49.13;;
2031;SDS011;27625;50.422;7.944;2023-02-12T00:47:08;112.77;;;48.20;;
2031;SDS011;27625;50.422;7.944;2023-02-12T00:49:37;99.90;;;45.77;;
2031;SDS011;27625;50.422;7.944;2023-02-12T00:52:04;115.07;;;48.60;;
2031;SDS011;27625;50.422;7.944;2023-02-12T00:54:32;110.67;;;49.20;;
2031;SDS011;27625;50.422;7.944;2023-02-12T00:56:59;112.07;;;49.90;;
2031;SDS011;27625;50.422;7.944;2023-02-12T00:59:28;115.43;;;46.97;;
2031;SDS011;27625;50.422;7.944;2023-02-12T01:01:55;105.03;;;46.43;;
2031;SDS011;27625;50.422;7.944;2023-02-12T01:04:22;107.87;;;45.43;;
2031;SDS011;27625;50.422;7.944;2023-02-12T01:06:49;108.83;;;45.47;;
2031;SDS011;27625;50.422;7.944;2023-02-12T01:09:17;101.27;;;43.77;;
2031;SDS011;27625;50.422;7.944;2023-02-12T01:11:45;102.03;;;44.30;;
2031;SDS011;27625;50.422;7.944;2023-02-12T01:14:12;95.00;;;44.43;;
2031;SDS011;27625;50.422;7.944;2023-02-12T01:16:40;95.83;;;43.00;;
2031;SDS011;27625;50.422;7.944;2023-02-12T01:19:07;126.97;;;47.03;;
2031;SDS011;27625;50.422;7.944;2023-02-12T01:21:35;125.27;;;47.93;;
2031;SDS011;27625;50.422;7.944;2023-02-12T01:24:02;118.60;;;46.80;;
2031;SDS011;27625;50.422;7.944;2023-02-12T01:26:30;107.77;;;43.63;;
2031;SDS011;27625;50.422;7.944;2023-02-12T01:29:00;127.27;;;48.03;;
2031;SDS011;27625;50.422;7.944;2023-02-12T01:31:31;119.47;;;48.23;;
2031;SDS011;27625;50.422;7.944;2023-02-12T01:34:00;120.17;;;46.60;;
2031;SDS011;27625;50.422;7.944;2023-02-12T01:38:56;124.80;;;47.90;;
2031;SDS011;27625;50.422;7.944;2023-02-12T01:41:24;131.03;;;48.37;;
2031;SDS011;27625;50.422;7.944;2023-02-12T01:44:06;129.30;;;49.10;;
2031;SDS011;27625;50.422;7.944;2023-02-12T01:46:34;142.57;;;51.30;;
2031;SDS011;27625;50.422;7.944;2023-02-12T01:49:03;142.27;;;51.10;;
2031;SDS011;27625;50.422;7.944;2023-02-12T01:51:39;136.23;;;48.83;;
2031;SDS011;27625;50.422;7.944;2023-02-12T01:54:07;136.10;;;47.10;;
2031;SDS011;27625;50.422;7.944;2023-02-12T01:56:36;137.53;;;46.63;;
2031;SDS011;27625;50.422;7.944;2023-02-12T01:59:04;139.47;;;48.07;;
2031;SDS011;27625;50.422;7.944;2023-02-12T02:01:32;130.67;;;47.53;;
2031;SDS011;27625;50.422;7.944;2023-02-12T02:04:00;137.30;;;47.80;;
2031;SDS011;27625;50.422;7.944;2023-02-12T02:06:30;141.43;;;47.03;;
2031;SDS011;27625;50.422;7.944;2023-02-12T02:08:58;135.67;;;46.80;;
2031;SDS011;27625;50.422;7.944;2023-02-12T02:11:27;143.10;;;45.63;;
2031;SDS011;27625;50.422;7.944;2023-02-12T02:14:14;150.70;;;46.17;;
2031;SDS011;27625;50.422;7.944;2023-02-12T02:17:05;146.20;;;48.97;;
2031;SDS011;27625;50.422;7.944;2023-02-12T02:19:59;154.43;;;49.17;;
2031;SDS011;27625;50.422;7.944;2023-02-12T02:22:38;155.80;;;48.10;;
2031;SDS011;27625;50.422;7.944;2023-02-12T02:25:14;159.93;;;48.67;;
2031;SDS011;27625;50.422;7.944;2023-02-12T02:28:05;148.10;;;48.10;;
2031;SDS011;27625;50.422;7.944;2023-02-12T02:30:41;131.70;;;45.93;;
2031;SDS011;27625;50.422;7.944;2023-02-12T02:33:14;169.30;;;48.87;;
2031;SDS011;27625;50.422;7.944;2023-02-12T02:35:49;148.87;;;47.20;;
2031;SDS011;27625;50.422;7.944;2023-02-12T02:38:23;161.50;;;49.77;;
2031;SDS011;27625;50.422;7.944;2023-02-12T02:40:58;159.43;;;50.60;;
2031;SDS011;27625;50.422;7.944;2023-02-12T02:43:30;157.20;;;51.97;;
2031;SDS011;27625;50.422;7.944;2023-02-12T02:46:02;170.47;;;49.90;;
2031;SDS011;27625;50.422;7.944;2023-02-12T02:48:33;172.13;;;51.27;;
2031;SDS011;27625;50.422;7.944;2023-02-12T02:51:03;152.40;;;48.13;;
2031;SDS011;27625;50.422;7.944;2023-02-12T02:53:34;183.23;;;53.10;;
2031;SDS011;27625;50.422;7.944;2023-02-12T02:56:05;165.43;;;48.30;;
2031;SDS011;27625;50.422;7.944;2023-02-12T02:58:37;179.43;;;52.30;;
2031;SDS011;27625;50.422;7.944;2023-02-12T03:01:08;167.63;;;49.47;;
2031;SDS011;27625;50.422;7.944;2023-02-12T03:03:37;170.80;;;50.90;;
2031;SDS011;27625;50.422;7.944;2023-02-12T03:06:12;171.63;;;50.57;;
2031;SDS011;27625;50.422;7.944;2023-02-12T03:08:48;166.80;;;51.30;;
2031;SDS011;27625;50.422;7.944;2023-02-12T03:11:17;155.10;;;48.50;;
2031;SDS011;27625;50.422;7.944;2023-02-12T03:13:47;140.50;;;46.80;;
2031;SDS011;27625;50.422;7.944;2023-02-12T03:16:23;155.70;;;49.17;;
2031;SDS011;27625;50.422;7.944;2023-02-12T03:18:53;152.30;;;49.87;;
2031;SDS011;27625;50.422;7.944;2023-02-12T03:21:23;157.67;;;49.10;;
2031;SDS011;27625;50.422;7.944;2023-02-12T03:23:55;138.07;;;48.10;;
2031;SDS011;27625;50.422;7.944;2023-02-12T03:26:27;149.20;;;48.47;;
2031;SDS011;27625;50.422;7.944;2023-02-12T03:29:00;152.90;;;51.50;;
2031;SDS011;27625;50.422;7.944;2023-02-12T03:31:29;151.67;;;51.43;;
2031;SDS011;27625;50.422;7.944;2023-02-12T03:34:07;147.97;;;46.40;;
2031;SDS011;27625;50.422;7.944;2023-02-12T03:36:37;160.00;;;50.20;;
2031;SDS011;27625;50.422;7.944;2023-02-12T03:39:19;163.73;;;48.67;;
2031;SDS011;27625;50.422;7.944;2023-02-12T03:41:52;137.20;;;44.70;;
2031;SDS011;27625;50.422;7.944;2023-02-12T03:44:27;158.70;;;47.53;;
2031;SDS011;27625;50.422;7.944;2023-02-12T03:47:01;138.37;;;45.13;;
2031;SDS011;27625;50.422;7.944;2023-02-12T03:49:32;159.30;;;47.40;;
2031;SDS011;27625;50.422;7.944;2023-02-12T03:52:02;162.13;;;47.57;;
2031;SDS011;27625;50.422;7.944;2023-02-12T03:54:31;142.03;;;43.47;;
2031;SDS011;27625;50.422;7.944;2023-02-12T03:57:00;137.83;;;46.23;;
2031;SDS011;27625;50.422;7.944;2023-02-12T03:59:34;150.33;;;45.33;;
2031;SDS011;27625;50.422;7.944;2023-02-12T04:02:03;157.63;;;49.43;;
2031;SDS011;27625;50.422;7.944;2023-02-12T04:04:31;148.57;;;46.17;;
2031;SDS011;27625;50.422;7.944;2023-02-12T04:06:58;154.43;;;48.90;;
2031;SDS011;27625;50.422;7.944;2023-02-12T04:09:27;163.10;;;47.23;;
2031;SDS011;27625;50.422;7.944;2023-02-12T04:11:58;144.10;;;46.17;;
2031;SDS011;27625;50.422;7.944;2023-02-12T04:14:40;161.63;;;47.00;;
2031;SDS011;27625;50.422;7.944;2023-02-12T04:17:15;163.13;;;49.50;;
2031;SDS011;27625;50.422;7.944;2023-02-12T04:19:53;173.83;;;48.20;;
2031;SDS011;27625;50.422;7.944;2023-02-12T04:22:33;180.70;;;49.17;;
2031;SDS011;27625;50.422;7.944;2023-02-12T04:25:10;165.37;;;48.00;;
2031;SDS011;27625;50.422;7.944;2023-02-12T04:27:44;170.77;;;48.33;;
2031;SDS011;27625;50.422;7.944;2023-02-12T04:30:18;165.63;;;51.10;;
2031;SDS011;27625;50.422;7.944;2023-02-12T04:32:49;178.60;;;51.90;;
2031;SDS011;27625;50.422;7.944;2023-02-12T04:35:19;169.17;;;50.17;;
2031;SDS011;27625;50.422;7.944;2023-02-12T04:37:51;163.30;;;47.77;;
2031;SDS011;27625;50.422;7.944;2023-02-12T04:40:22;169.83;;;47.67;;
2031;SDS011;27625;50.422;7.944;2023-02-12T04:42:50;186.00;;;49.80;;
2031;SDS011;27625;50.422;7.944;2023-02-12T04:45:25;183.87;;;48.93;;
2031;SDS011;27625;50.422;7.944;2023-02-12T04:47:54;199.60;;;50.03;;
2031;SDS011;27625;50.422;7.944;2023-02-12T04:50:21;214.40;;;54.97;;
2031;SDS011;27625;50.422;7.944;2023-02-12T04:52:48;195.13;;;52.70;;
2031;SDS011;27625;50.422;7.944;2023-02-12T04:55:15;189.70;;;48.37;;
2031;SDS011;27625;50.422;7.944;2023-02-12T04:57:41;191.33;;;52.40;;
2031;SDS011;27625;50.422;7.944;2023-02-12T05:00:10;170.13;;;50.03;;
2031;SDS011;27625;50.422;7.944;2023-02-12T05:02:40;191.70;;;50.87;;
2031;SDS011;27625;50.422;7.944;2023-02-12T05:05:11;148.97;;;46.77;;
2031;SDS011;27625;50.422;7.944;2023-02-12T05:07:39;151.53;;;50.20;;
2031;SDS011;27625;50.422;7.944;2023-02-12T05:10:06;146.70;;;49.10;;
2031;SDS011;27625;50.422;7.944;2023-02-12T05:12:33;126.87;;;45.83;;
2031;SDS011;27625;50.422;7.944;2023-02-12T05:15:00;134.77;;;47.20;;
2031;SDS011;27625;50.422;7.944;2023-02-12T05:17:28;127.77;;;47.60;;
2031;SDS011;27625;50.422;7.944;2023-02-12T05:19:54;123.10;;;46.00;;
2031;SDS011;27625;50.422;7.944;2023-02-12T05:22:23;118.77;;;44.40;;
2031;SDS011;27625;50.422;7.944;2023-02-12T05:24:50;123.60;;;45.33;;
2031;SDS011;27625;50.422;7.944;2023-02-12T05:27:17;124.50;;;44.00;;
2031;SDS011;27625;50.422;7.944;2023-02-12T05:29:45;134.47;;;45.10;;
2031;SDS011;27625;50.422;7.944;2023-02-12T05:32:11;123.10;;;45.70;;
2031;SDS011;27625;50.422;7.944;2023-02-12T05:34:39;149.40;;;49.57;;
2031;SDS011;27625;50.422;7.944;2023-02-12T05:37:07;149.87;;;54.70;;
2031;SDS011;27625;50.422;7.944;2023-02-12T05:39:38;156.30;;;51.77;;
2031;SDS011;27625;50.422;7.944;2023-02-12T05:42:05;172.50;;;54.60;;
2031;SDS011;27625;50.422;7.944;2023-02-12T05:47:04;145.17;;;50.93;;
2031;SDS011;27625;50.422;7.944;2023-02-12T05:49:31;152.40;;;50.80;;
2031;SDS011;27625;50.422;7.944;2023-02-12T05:51:58;137.77;;;49.50;;
2031;SDS011;27625;50.422;7.944;2023-02-12T05:54:29;148.50;;;50.33;;
2031;SDS011;27625;50.422;7.944;2023-02-12T05:56:58;145.17;;;48.27;;
2031;SDS011;27625;50.422;7.944;2023-02-12T05:59:27;144.43;;;48.27;;
2031;SDS011;27625;50.422;7.944;2023-02-12T06:01:55;138.10;;;48.60;;
2031;SDS011;27625;50.422;7.944;2023-02-12T06:04:25;183.50;;;55.27;;
2031;SDS011;27625;50.422;7.944;2023-02-12T06:06:53;164.43;;;51.43;;
2031;SDS011;27625;50.422;7.944;2023-02-12T06:09:20;159.00;;;48.97;;
2031;SDS011;27625;50.422;7.944;2023-02-12T06:11:48;193.17;;;50.40;;
2031;SDS011;27625;50.422;7.944;2023-02-12T06:14:18;172.63;;;50.63;;
2031;SDS011;27625;50.422;7.944;2023-02-12T06:16:51;184.13;;;50.10;;
2031;SDS011;27625;50.422;7.944;2023-02-12T06:19:26;175.60;;;51.30;;
2031;SDS011;27625;50.422;7.944;2023-02-12T06:21:53;170.90;;;48.30;;
2031;SDS011;27625;50.422;7.944;2023-02-12T06:24:20;157.37;;;51.10;;
2031;SDS011;27625;50.422;7.944;2023-02-12T06:29:19;170.43;;;51.23;;
2031;SDS011;27625;50.422;7.944;2023-02-12T06:31:46;175.77;;;48.10;;
2031;SDS011;27625;50.422;7.944;2023-02-12T06:34:20;165.90;;;48.17;;
2031;SDS011;27625;50.422;7.944;2023-02-12T06:36:48;173.10;;;47.37;;
2031;SDS011;27625;50.422;7.944;2023-02-12T06:39:16;151.57;;;47.80;;
2031;SDS011;27625;50.422;7.944;2023-02-12T06:41:48;153.97;;;45.80;;
2031;SDS011;27625;50.422;7.944;2023-02-12T06:44:15;137.00;;;46.07;;
2031;SDS011;27625;50.422;7.944;2023-02-12T06:46:43;137.10;;;47.00;;
2031;SDS011;27625;50.422;7.944;2023-02-12T06:49:11;143.10;;;44.90;;
2031;SDS011;27625;50.422;7.944;2023-02-12T06:51:40;127.23;;;43.40;;
2031;SDS011;27625;50.422;7.944;2023-02-12T06:54:11;127.60;;;43.77;;
2031;SDS011;27625;50.422;7.944;2023-02-12T06:56:38;130.93;;;43.33;;
2031;SDS011;27625;50.422;7.944;2023-02-12T06:59:06;139.23;;;44.23;;
2031;SDS011;27625;50.422;7.944;2023-02-12T07:01:33;136.53;;;45.37;;
2031;SDS011;27625;50.422;7.944;2023-02-12T07:04:03;144.67;;;48.40;;
2031;SDS011;27625;50.422;7.944;2023-02-12T07:06:30;134.27;;;43.33;;
2031;SDS011;27625;50.422;7.944;2023-02-12T07:09:00;128.97;;;44.77;;
2031;SDS011;27625;50.422;7.944;2023-02-12T07:11:28;126.30;;;41.60;;
2031;SDS011;27625;50.422;7.944;2023-02-12T07:13:57;126.50;;;44.40;;
2031;SDS011;27625;50.422;7.944;2023-02-12T07:16:24;126.17;;;42.47;;
2031;SDS011;27625;50.422;7.944;2023-02-12T07:18:51;133.33;;;43.40;;
2031;SDS011;27625;50.422;7.944;2023-02-12T07:21:19;119.43;;;43.30;;
2031;SDS011;27625;50.422;7.944;2023-02-12T07:23:46;113.50;;;39.63;;
2031;SDS011;27625;50.422;7.944;2023-02-12T07:26:14;116.83;;;42.10;;
2031;SDS011;27625;50.422;7.944;2023-02-12T07:28:41;113.90;;;40.00;;
2031;SDS011;27625;50.422;7.944;2023-02-12T07:31:08;124.70;;;42.93;;
2031;SDS011;27625;50.422;7.944;2023-02-12T07:33:36;115.40;;;42.40;;
2031;SDS011;27625;50.422;7.944;2023-02-12T07:36:04;121.23;;;41.83;;
2031;SDS011;27625;50.422;7.944;2023-02-12T07:38:34;127.73;;;42.87;;
2031;SDS011;27625;50.422;7.944;2023-02-12T07:41:07;138.77;;;46.27;;
2031;SDS011;27625;50.422;7.944;2023-02-12T07:43:36;149.83;;;46.63;;
2031;SDS011;27625;50.422;7.944;2023-02-12T07:46:07;142.03;;;45.13;;
2031;SDS011;27625;50.422;7.944;2023-02-12T07:48:35;135.20;;;41.60;;
2031;SDS011;27625;50.422;7.944;2023-02-12T07:51:03;148.67;;;46.20;;
2031;SDS011;27625;50.422;7.944;2023-02-12T07:53:31;141.30;;;43.60;;
2031;SDS011;27625;50.422;7.944;2023-02-12T07:56:07;136.67;;;45.80;;
2031;SDS011;27625;50.422;7.944;2023-02-12T07:58:37;140.57;;;48.27;;
2031;SDS011;27625;50.422;7.944;2023-02-12T08:01:12;133.23;;;44.90;;
2031;SDS011;27625;50.422;7.944;2023-02-12T08:06:11;131.30;;;44.83;;
2031;SDS011;27625;50.422;7.944;2023-02-12T08:08:39;128.67;;;45.20;;
2031;SDS011;27625;50.422;7.944;2023-02-12T08:11:11;119.43;;;43.70;;
2031;SDS011;27625;50.422;7.944;2023-02-12T08:13:40;116.07;;;40.17;;
2031;SDS011;27625;50.422;7.944;2023-02-12T08:16:08;112.17;;;40.07;;
2031;SDS011;27625;50.422;7.944;2023-02-12T08:18:37;194.27;;;45.27;;
2031;SDS011;27625;50.422;7.944;2023-02-12T08:21:04;118.10;;;39.50;;
2031;SDS011;27625;50.422;7.944;2023-02-12T08:23:33;109.20;;;38.20;;
2031;SDS011;27625;50.422;7.944;2023-02-12T08:26:04;107.33;;;34.93;;
2031;SDS011;27625;50.422;7.944;2023-02-12T08:31:13;103.20;;;35.80;;
2031;SDS011;27625;50.422;7.944;2023-02-12T08:33:40;109.60;;;36.13;;
2031;SDS011;27625;50.422;7.944;2023-02-12T08:36:08;113.63;;;37.63;;
2031;SDS011;27625;50.422;7.944;2023-02-12T08:38:38;118.80;;;37.43;;
2031;SDS011;27625;50.422;7.944;2023-02-12T08:41:05;152.50;;;41.37;;
2031;SDS011;27625;50.422;7.944;2023-02-12T08:43:35;141.63;;;42.53;;
2031;SDS011;27625;50.422;7.944;2023-02-12T08:46:05;139.20;;;42.13;;
2031;SDS011;27625;50.422;7.944;2023-02-12T08:48:35;134.47;;;44.40;;
2031;SDS011;27625;50.422;7.944;2023-02-12T08:51:03;118.50;;;37.57;;
2031;SDS011;27625;50.422;7.944;2023-02-12T08:53:31;122.77;;;40.07;;
2031;SDS011;27625;50.422;7.944;2023-02-12T08:55:58;125.73;;;41.20;;
2031;SDS011;27625;50.422;7.944;2023-02-12T08:58:34;139.03;;;41.70;;
2031;SDS011;27625;50.422;7.944;2023-02-12T09:01:02;134.67;;;43.97;;
2031;SDS011;27625;50.422;7.944;2023-02-12T09:03:34;144.53;;;42.03;;
2031;SDS011;27625;50.422;7.944;2023-02-12T09:06:01;130.97;;;42.10;;
2031;SDS011;27625;50.422;7.944;2023-02-12T09:08:28;160.37;;;44.73;;
2031;SDS011;27625;50.422;7.944;2023-02-12T09:10:57;154.43;;;43.60;;
2031;SDS011;27625;50.422;7.944;2023-02-12T09:13:23;166.90;;;45.70;;
2031;SDS011;27625;50.422;7.944;2023-02-12T09:15:52;155.23;;;45.30;;
2031;SDS011;27625;50.422;7.944;2023-02-12T09:18:19;172.60;;;47.77;;
2031;SDS011;27625;50.422;7.944;2023-02-12T09:23:17;164.37;;;47.70;;
2031;SDS011;27625;50.422;7.944;2023-02-12T09:25:44;138.30;;;47.60;;
2031;SDS011;27625;50.422;7.944;2023-02-12T09:28:13;165.73;;;50.60;;
2031;SDS011;27625;50.422;7.944;2023-02-12T09:30:40;173.53;;;52.03;;
2031;SDS011;27625;50.422;7.944;2023-02-12T09:33:08;155.43;;;46.57;;
2031;SDS011;27625;50.422;7.944;2023-02-12T09:35:35;163.57;;;48.90;;
2031;SDS011;27625;50.422;7.944;2023-02-12T09:38:06;166.17;;;50.33;;
2031;SDS011;27625;50.422;7.944;2023-02-12T09:40:50;162.47;;;50.20;;
2031;SDS011;27625;50.422;7.944;2023-02-12T09:43:30;155.77;;;48.13;;
2031;SDS011;27625;50.422;7.944;2023-02-12T09:46:00;176.83;;;48.70;;
2031;SDS011;27625;50.422;7.944;2023-02-12T09:48:42;179.47;;;49.20;;
2031;SDS011;27625;50.422;7.944;2023-02-12T09:51:19;159.93;;;46.80;;
2031;SDS011;27625;50.422;7.944;2023-02-12T09:53:48;188.93;;;49.47;;
2031;SDS011;27625;50.422;7.944;2023-02-12T09:56:16;173.30;;;51.20;;
2031;SDS011;27625;50.422;7.944;2023-02-12T09:58:45;136.40;;;47.00;;
2031;SDS011;27625;50.422;7.944;2023-02-12T10:01:17;142.53;;;46.63;;
2031;SDS011;27625;50.422;7.944;2023-02-12T10:03:47;149.17;;;46.07;;
2031;SDS011;27625;50.422;7.944;2023-02-12T10:06:16;134.80;;;45.90;;
2031;SDS011;27625;50.422;7.944;2023-02-12T10:08:49;133.97;;;43.67;;
2031;SDS011;27625;50.422;7.944;2023-02-12T10:11:33;136.77;;;41.13;;
2031;SDS011;27625;50.422;7.944;2023-02-12T10:14:14;125.50;;;40.00;;
2031;SDS011;27625;50.422;7.944;2023-02-12T10:16:58;116.20;;;38.13;;
2031;SDS011;27625;50.422;7.944;2023-02-12T10:19:33;112.33;;;39.20;;
2031;SDS011;27625;50.422;7.944;2023-02-12T10:22:12;123.30;;;41.47;;
2031;SDS011;27625;50.422;7.944;2023-02-12T10:24:47;105.67;;;38.50;;
2031;SDS011;27625;50.422;7.944;2023-02-12T10:27:23;98.13;;;37.80;;
2031;SDS011;27625;50.422;7.944;2023-02-12T10:29:54;89.63;;;38.57;;
2031;SDS011;27625;50.422;7.944;2023-02-12T10:32:26;93.83;;;35.57;;
2031;SDS011;27625;50.422;7.944;2023-02-12T10:34:53;92.30;;;38.40;;
2031;SDS011;27625;50.422;7.944;2023-02-12T10:37:24;83.93;;;34.80;;
2031;SDS011;27625;50.422;7.944;2023-02-12T10:39:58;73.43;;;32.87;;
2031;SDS011;27625;50.422;7.944;2023-02-12T10:42:31;72.53;;;33.90;;
2031;SDS011;27625;50.422;7.944;2023-02-12T10:45:03;65.10;;;31.60;;
2031;SDS011;27625;50.422;7.944;2023-02-12T10:47:32;60.50;;;29.07;;
2031;SDS011;27625;50.422;7.944;2023-02-12T10:50:01;59.40;;;27.63;;
2031;SDS011;27625;50.422;7.944;2023-02-12T10:52:35;66.33;;;34.23;;
2031;SDS011;27625;50.422;7.944;2023-02-12T10:55:22;58.03;;;30.47;;
2031;SDS011;27625;50.422;7.944;2023-02-12T10:57:50;45.27;;;23.23;;
2031;SDS011;27625;50.422;7.944;2023-02-12T11:00:21;49.47;;;25.40;;
2031;SDS011;27625;50.422;7.944;2023-02-12T11:03:05;47.00;;;23.73;;
2031;SDS011;27625;50.422;7.944;2023-02-12T11:05:45;39.23;;;20.33;;
2031;SDS011;27625;50.422;7.944;2023-02-12T11:08:24;42.43;;;22.50;;
2031;SDS011;27625;50.422;7.944;2023-02-12T11:10:55;43.53;;;22.60;;
2031;SDS011;27625;50.422;7.944;2023-02-12T11:13:28;44.43;;;22.80;;
2031;SDS011;27625;50.422;7.944;2023-02-12T11:15:58;40.13;;;22.33;;
2031;SDS011;27625;50.422;7.944;2023-02-12T11:18:27;40.10;;;22.43;;
2031;SDS011;27625;50.422;7.944;2023-02-12T11:20:59;47.57;;;25.50;;
2031;SDS011;27625;50.422;7.944;2023-02-12T11:23:28;46.77;;;23.73;;
2031;SDS011;27625;50.422;7.944;2023-02-12T11:25:58;44.90;;;24.47;;
2031;SDS011;27625;50.422;7.944;2023-02-12T11:28:27;38.30;;;22.97;;
2031;SDS011;27625;50.422;7.944;2023-02-12T11:30:56;39.17;;;22.00;;
2031;SDS011;27625;50.422;7.944;2023-02-12T11:33:31;43.90;;;22.13;;
2031;SDS011;27625;50.422;7.944;2023-02-12T11:36:02;41.97;;;22.43;;
2031;SDS011;27625;50.422;7.944;2023-02-12T11:38:32;45.00;;;24.63;;
2031;SDS011;27625;50.422;7.944;2023-02-12T11:41:03;45.37;;;23.83;;
2031;SDS011;27625;50.422;7.944;2023-02-12T11:43:35;41.63;;;22.37;;
2031;SDS011;27625;50.422;7.944;2023-02-12T11:46:05;38.93;;;22.00;;
2031;SDS011;27625;50.422;7.944;2023-02-12T11:48:32;45.10;;;22.90;;
2031;SDS011;27625;50.422;7.944;2023-02-12T11:51:03;42.07;;;22.30;;
2031;SDS011;27625;50.422;7.944;2023-02-12T11:53:34;42.90;;;22.57;;
2031;SDS011;27625;50.422;7.944;2023-02-12T11:56:05;35.00;;;21.20;;
2031;SDS011;27625;50.422;7.944;2023-02-12T11:58:35;42.20;;;23.23;;
2031;SDS011;27625;50.422;7.944;2023-02-12T12:01:03;41.40;;;23.40;;
2031;SDS011;27625;50.422;7.944;2023-02-12T12:03:38;41.30;;;22.87;;
2031;SDS011;27625;50.422;7.944;2023-02-12T12:06:13;44.60;;;21.53;;
2031;SDS011;27625;50.422;7.944;2023-02-12T12:08:47;34.37;;;22.10;;
2031;SDS011;27625;50.422;7.944;2023-02-12T12:11:18;45.77;;;25.50;;
2031;SDS011;27625;50.422;7.944;2023-02-12T12:13:48;42.60;;;24.03;;
2031;SDS011;27625;50.422;7.944;2023-02-12T12:16:23;37.37;;;22.30;;
2031;SDS011;27625;50.422;7.944;2023-02-12T12:19:13;37.43;;;22.27;;
2031;SDS011;27625;50.422;7.944;2023-02-12T12:22:02;37.80;;;22.13;;
2031;SDS011;27625;50.422;7.944;2023-02-12T12:24:35;36.97;;;21.57;;
2031;SDS011;27625;50.422;7.944;2023-02-12T12:27:09;41.87;;;22.20;;
2031;SDS011;27625;50.422;7.944;2023-02-12T12:30:15;40.33;;;22.80;;
2031;SDS011;27625;50.422;7.944;2023-02-12T12:32:47;34.77;;;22.00;;
2031;SDS011;27625;50.422;7.944;2023-02-12T12:35:17;35.23;;;20.97;;
2031;SDS011;27625;50.422;7.944;2023-02-12T12:37:50;36.17;;;20.60;;
2031;SDS011;27625;50.422;7.944;2023-02-12T12:40:25;38.47;;;22.10;;
2031;SDS011;27625;50.422;7.944;2023-02-12T12:43:07;35.27;;;20.33;;
2031;SDS011;27625;50.422;7.944;2023-02-12T12:45:55;38.90;;;23.43;;
2031;SDS011;27625;50.422;7.944;2023-02-12T12:48:47;39.10;;;23.17;;
2031;SDS011;27625;50.422;7.944;2023-02-12T12:51:28;38.83;;;22.73;;
2031;SDS011;27625;50.422;7.944;2023-02-12T12:54:15;34.30;;;21.10;;
2031;SDS011;27625;50.422;7.944;2023-02-12T12:56:53;35.07;;;22.43;;
2031;SDS011;27625;50.422;7.944;2023-02-12T12:59:39;29.23;;;18.87;;
2031;SDS011;27625;50.422;7.944;2023-02-12T13:02:34;34.10;;;21.20;;
2031;SDS011;27625;50.422;7.944;2023-02-12T13:05:19;30.00;;;18.90;;
2031;SDS011;27625;50.422;7.944;2023-02-12T13:07:51;23.73;;;15.07;;
2031;SDS011;27625;50.422;7.944;2023-02-12T13:10:25;25.00;;;16.17;;
2031;SDS011;27625;50.422;7.944;2023-02-12T13:13:13;26.87;;;15.83;;
2031;SDS011;27625;50.422;7.944;2023-02-12T13:15:49;25.13;;;16.10;;
2031;SDS011;27625;50.422;7.944;2023-02-12T13:20:56;29.50;;;18.90;;
2031;SDS011;27625;50.422;7.944;2023-02-12T13:23:30;26.93;;;17.30;;
2031;SDS011;27625;50.422;7.944;2023-02-12T13:26:03;29.13;;;18.83;;
2031;SDS011;27625;50.422;7.944;2023-02-12T13:28:33;31.40;;;17.27;;
2031;SDS011;27625;50.422;7.944;2023-02-12T13:31:05;25.67;;;16.27;;
2031;SDS011;27625;50.422;7.944;2023-02-12T13:33:35;28.33;;;16.03;;
2031;SDS011;27625;50.422;7.944;2023-02-12T13:36:06;25.27;;;16.43;;
2031;SDS011;27625;50.422;7.944;2023-02-12T13:38:36;26.10;;;17.40;;
2031;SDS011;27625;50.422;7.944;2023-02-12T13:41:08;25.43;;;15.50;;
2031;SDS011;27625;50.422;7.944;2023-02-12T13:43:38;24.30;;;16.47;;
2031;SDS011;27625;50.422;7.944;2023-02-12T13:46:17;27.33;;;13.90;;
2031;SDS011;27625;50.422;7.944;2023-02-12T13:48:52;23.13;;;15.87;;
2031;SDS011;27625;50.422;7.944;2023-02-12T13:51:25;21.70;;;13.80;;
2031;SDS011;27625;50.422;7.944;2023-02-12T13:53:59;23.67;;;14.47;;
2031;SDS011;27625;50.422;7.944;2023-02-12T13:56:40;22.00;;;14.00;;
2031;SDS011;27625;50.422;7.944;2023-02-12T14:08:04;24.07;;;15.60;;
2031;SDS011;27625;50.422;7.944;2023-02-12T14:10:33;21.30;;;13.63;;
2031;SDS011;27625;50.422;7.944;2023-02-12T14:13:12;19.60;;;12.70;;
2031;SDS011;27625;50.422;7.944;2023-02-12T14:15:42;17.53;;;10.33;;
2031;SDS011;27625;50.422;7.944;2023-02-12T14:18:26;16.23;;;10.10;;
2031;SDS011;27625;50.422;7.944;2023-02-12T14:27:29;20.40;;;12.80;;
2031;SDS011;27625;50.422;7.944;2023-02-12T14:41:40;15.33;;;10.60;;
2031;SDS011;27625;50.422;7.944;2023-02-12T14:47:15;10.80;;;7.60;;
2031;SDS011;27625;50.422;7.944;2023-02-12T14:50:24;12.77;;;8.17;;
2031;SDS011;27625;50.422;7.944;2023-02-12T14:52:56;13.67;;;8.30;;
2031;SDS011;27625;50.422;7.944;2023-02-12T14:55:26;13.37;;;8.87;;
2031;SDS011;27625;50.422;7.944;2023-02-12T14:57:56;11.27;;;8.20;;
2031;SDS011;27625;50.422;7.944;2023-02-12T15:00:24;13.87;;;8.73;;
2031;SDS011;27625;50.422;7.944;2023-02-12T15:02:58;11.53;;;8.20;;
2031;SDS011;27625;50.422;7.944;2023-02-12T15:05:28;12.27;;;7.70;;
2031;SDS011;27625;50.422;7.944;2023-02-12T15:07:59;13.77;;;8.80;;
2031;SDS011;27625;50.422;7.944;2023-02-12T15:10:28;11.43;;;8.20;;
2031;SDS011;27625;50.422;7.944;2023-02-12T15:13:00;14.30;;;8.93;;
2031;SDS011;27625;50.422;7.944;2023-02-12T15:15:34;14.00;;;9.87;;
2031;SDS011;27625;50.422;7.944;2023-02-12T15:18:17;16.67;;;10.20;;
2031;SDS011;27625;50.422;7.944;2023-02-12T15:20:49;18.23;;;11.00;;
2031;SDS011;27625;50.422;7.944;2023-02-12T15:23:29;18.10;;;11.60;;
2031;SDS011;27625;50.422;7.944;2023-02-12T15:28:28;18.57;;;11.67;;
2031;SDS011;27625;50.422;7.944;2023-02-12T15:30:58;22.90;;;12.77;;
2031;SDS011;27625;50.422;7.944;2023-02-12T15:33:31;22.73;;;13.20;;
2031;SDS011;27625;50.422;7.944;2023-02-12T15:36:01;20.03;;;12.43;;
2031;SDS011;27625;50.422;7.944;2023-02-12T15:38:31;20.27;;;12.80;;
2031;SDS011;27625;50.422;7.944;2023-02-12T15:41:00;21.23;;;13.17;;
2031;SDS011;27625;50.422;7.944;2023-02-12T15:43:29;21.20;;;13.43;;
2031;SDS011;27625;50.422;7.944;2023-02-12T15:46:00;20.73;;;13.20;;